Time;durP1;ratioP1;P1;durP2;ratioP2;P2;SDS_P1;SDS_P2;PMS_P1;PMS_P2;Temp;Humidity;BMP_temperature;BMP_pressure;BME280_temperature;BME280_humidity;BME280_pressure;Samples;Min_cycle;Max_cycle;Signal;HPM_P1;HPM_P2
2022/03/15 00:01:12;;;;;;;24.42;16.00;;;10.40;70.90;;;;;;5052771;28;20039;-68
2022/03/15 00:03:38;;;;;;;23.33;15.90;;;10.40;70.90;;;;;;5050215;28;20029;-68
2022/03/15 00:06:04;;;;;;;24.40;15.80;;;10.40;70.90;;;;;;5050744;28;20091;-68
2022/03/15 00:08:30;;;;;;;25.10;16.23;;;10.40;70.90;;;;;;5056011;28;20095;-68
2022/03/15 00:10:57;;;;;;;25.10;15.07;;;10.40;70.90;;;;;;5056120;28;20033;-68
2022/03/15 00:13:28;;;;;;;30.92;16.63;;;10.40;70.90;;;;;;5052223;28;20076;-68
2022/03/15 00:15:54;;;;;;;24.77;16.23;;;10.40;71.00;;;;;;5041302;28;20060;-68
2022/03/15 00:18:20;;;;;;;23.98;15.43;;;10.30;70.90;;;;;;5045365;28;20035;-68
2022/03/15 00:20:45;;;;;;;23.10;14.90;;;10.30;71.00;;;;;;5055569;28;20040;-68
2022/03/15 00:23:11;;;;;;;26.60;15.20;;;10.30;71.00;;;;;;5054922;28;20112;-68
2022/03/15 00:25:37;;;;;;;26.30;15.73;;;10.30;71.00;;;;;;5046773;28;20017;-68
2022/03/15 00:28:02;;;;;;;24.92;16.05;;;10.30;71.00;;;;;;5053984;28;20110;-68
2022/03/15 00:30:28;;;;;;;27.73;15.32;;;10.20;71.00;;;;;;5054528;28;20070;-68
2022/03/15 00:32:54;;;;;;;25.70;14.95;;;10.20;71.10;;;;;;5055580;28;20350;-68
2022/03/15 00:35:21;;;;;;;27.25;15.43;;;10.20;71.10;;;;;;5047913;28;20026;-68
2022/03/15 00:37:50;;;;;;;22.65;15.05;;;10.20;71.20;;;;;;5036685;28;20033;-68
2022/03/15 00:40:17;;;;;;;23.17;15.45;;;10.20;71.20;;;;;;5035669;28;20030;-68
2022/03/15 00:42:54;;;;;;;23.83;15.18;;;10.20;71.10;;;;;;5035524;28;20026;-68
2022/03/15 00:45:27;;;;;;;27.77;15.93;;;10.20;71.20;;;;;;5042952;28;20046;-68
2022/03/15 00:47:54;;;;;;;24.05;15.70;;;10.20;71.20;;;;;;5056130;28;20035;-68
2022/03/15 00:50:21;;;;;;;22.63;15.48;;;10.10;71.10;;;;;;5036628;28;20025;-68
2022/03/15 00:52:48;;;;;;;21.48;15.27;;;10.20;71.20;;;;;;5035357;28;20120;-68
2022/03/15 00:55:13;;;;;;;25.25;15.60;;;10.10;71.20;;;;;;5035044;28;20032;-68
2022/03/15 00:57:39;;;;;;;24.02;14.80;;;10.10;71.30;;;;;;5035264;28;20034;-68
2022/03/15 01:00:07;;;;;;;23.05;14.85;;;10.10;71.30;;;;;;5039562;28;20057;-68
2022/03/15 01:02:33;;;;;;;22.88;14.70;;;10.10;71.30;;;;;;5051949;28;20103;-68
2022/03/15 01:04:58;;;;;;;20.98;14.13;;;10.10;71.30;;;;;;5019714;28;20442;-68
2022/03/15 01:07:24;;;;;;;22.13;14.85;;;10.10;71.30;;;;;;5036213;28;20036;-68
2022/03/15 01:09:50;;;;;;;21.13;13.43;;;10.10;71.30;;;;;;5046575;28;20033;-68
2022/03/15 01:12:16;;;;;;;24.27;14.82;;;10.00;71.30;;;;;;5055818;28;20025;-68
2022/03/15 01:14:42;;;;;;;23.33;14.23;;;10.00;71.30;;;;;;5048616;28;20040;-68
2022/03/15 01:17:08;;;;;;;24.45;15.70;;;10.00;71.40;;;;;;5049804;28;20033;-68
2022/03/15 01:19:33;;;;;;;28.70;15.38;;;10.00;71.40;;;;;;5034817;28;20386;-68
2022/03/15 01:21:59;;;;;;;24.17;14.60;;;10.00;71.40;;;;;;5035923;28;20069;-68
2022/03/15 01:24:27;;;;;;;26.48;14.48;;;10.00;71.50;;;;;;5040653;28;20017;-68
2022/03/15 01:26:54;;;;;;;22.38;14.68;;;10.00;71.60;;;;;;5035637;28;20022;-68
2022/03/15 01:29:21;;;;;;;24.05;15.13;;;9.90;71.50;;;;;;5017985;28;20031;-68
2022/03/15 01:31:49;;;;;;;26.98;14.20;;;9.90;71.50;;;;;;5040698;28;20059;-68
2022/03/15 01:34:16;;;;;;;22.50;14.52;;;9.90;71.50;;;;;;5048676;28;20029;-68
2022/03/15 01:36:43;;;;;;;22.55;13.82;;;9.90;71.50;;;;;;5036182;28;20021;-68
2022/03/15 01:39:08;;;;;;;23.92;14.80;;;9.80;71.50;;;;;;5054543;28;20052;-68
2022/03/15 01:41:35;;;;;;;23.67;14.80;;;9.90;71.60;;;;;;5052515;28;20076;-68
2022/03/15 01:44:03;;;;;;;21.00;13.43;;;9.90;71.60;;;;;;5052938;28;20414;-68
2022/03/15 01:46:29;;;;;;;19.63;12.30;;;9.90;71.60;;;;;;5047465;28;20025;-68
2022/03/15 01:48:56;;;;;;;19.20;13.40;;;9.80;71.60;;;;;;5050361;28;20036;-68
2022/03/15 01:51:22;;;;;;;20.45;12.75;;;9.80;71.60;;;;;;5034538;28;20116;-68
2022/03/15 01:53:48;;;;;;;20.33;12.38;;;9.80;71.70;;;;;;5035399;28;20029;-68
2022/03/15 01:56:14;;;;;;;27.13;15.45;;;9.80;71.70;;;;;;5035159;28;20029;-68
2022/03/15 01:58:40;;;;;;;21.52;13.18;;;9.80;71.70;;;;;;5034128;28;20029;-68
2022/03/15 02:01:06;;;;;;;20.88;13.35;;;9.80;71.80;;;;;;5040215;28;20028;-68
2022/03/15 02:03:33;;;;;;;23.60;13.60;;;9.80;71.80;;;;;;5049483;28;20371;-68
2022/03/15 02:05:58;;;;;;;21.13;13.38;;;9.80;71.80;;;;;;5039492;28;20033;-68
2022/03/15 02:08:24;;;;;;;22.42;13.02;;;9.80;71.90;;;;;;5034896;28;20029;-68
2022/03/15 02:10:50;;;;;;;24.67;13.32;;;9.80;71.90;;;;;;5047171;28;20119;-68
2022/03/15 02:13:19;;;;;;;19.63;12.73;;;9.80;71.90;;;;;;5053599;28;20100;-68
2022/03/15 02:15:47;;;;;;;24.55;13.07;;;9.80;71.90;;;;;;5047516;28;20047;-68
2022/03/15 02:18:12;;;;;;;22.67;11.98;;;9.80;71.90;;;;;;5041223;28;20025;-68
2022/03/15 02:20:38;;;;;;;20.65;12.20;;;9.80;71.90;;;;;;5041486;28;20113;-68
2022/03/15 02:23:04;;;;;;;21.55;12.40;;;9.90;71.90;;;;;;5034226;28;20306;-68
2022/03/15 02:25:29;;;;;;;23.00;13.15;;;9.90;72.00;;;;;;5049859;28;20025;-68
2022/03/15 02:27:55;;;;;;;23.05;12.35;;;9.90;71.90;;;;;;5045571;28;20022;-68
2022/03/15 02:30:23;;;;;;;20.88;13.35;;;9.90;72.00;;;;;;5033882;28;20049;-68
2022/03/15 02:32:49;;;;;;;19.95;12.30;;;9.80;72.00;;;;;;5052082;28;20032;-68
2022/03/15 02:35:15;;;;;;;17.98;11.60;;;9.80;72.10;;;;;;5049999;28;20408;-68
2022/03/15 02:37:42;;;;;;;24.92;14.85;;;9.80;72.20;;;;;;5053542;28;20449;-68
2022/03/15 02:40:08;;;;;;;21.52;12.82;;;9.80;72.30;;;;;;5050441;28;20064;-68
2022/03/15 02:42:35;;;;;;;23.55;13.43;;;9.80;72.20;;;;;;5039014;28;20036;-68
2022/03/15 02:45:01;;;;;;;22.65;13.82;;;9.80;72.30;;;;;;5052031;28;20115;-68
2022/03/15 02:47:27;;;;;;;21.63;13.60;;;9.80;72.30;;;;;;5036193;28;20022;-68
2022/03/15 02:49:53;;;;;;;21.85;13.35;;;9.80;72.30;;;;;;5035631;28;20032;-68
2022/03/15 02:52:19;;;;;;;21.85;13.15;;;9.80;72.40;;;;;;5040232;28;20038;-69
2022/03/15 02:54:45;;;;;;;22.98;12.90;;;9.80;72.40;;;;;;5043668;28;20111;-68
2022/03/15 02:57:11;;;;;;;20.77;13.45;;;9.80;72.40;;;;;;5042456;28;20047;-68
2022/03/15 02:59:40;;;;;;;23.92;13.60;;;9.80;72.40;;;;;;5025145;28;20033;-68
2022/03/15 03:02:07;;;;;;;21.50;13.10;;;9.80;72.40;;;;;;5035974;28;20453;-68
2022/03/15 03:04:32;;;;;;;24.95;14.38;;;9.80;73.10;;;;;;5044526;28;20038;-68
2022/03/15 03:07:01;;;;;;;23.98;13.07;;;9.80;72.40;;;;;;5047896;28;20031;-68
2022/03/15 03:09:28;;;;;;;23.23;12.85;;;9.90;72.50;;;;;;5045033;28;20030;-68
2022/03/15 03:11:53;;;;;;;25.55;17.63;;;9.80;72.40;;;;;;5043260;28;20453;-68
2022/03/15 03:14:21;;;;;;;22.55;16.48;;;9.80;72.50;;;;;;5046597;28;20037;-68
2022/03/15 03:16:47;;;;;;;25.10;15.63;;;9.80;72.50;;;;;;5047021;28;20457;-68
2022/03/15 03:19:12;;;;;;;23.85;15.25;;;9.80;72.50;;;;;;5038561;28;20041;-68
2022/03/15 03:21:40;;;;;;;23.52;15.02;;;9.80;72.60;;;;;;5044712;28;20037;-68
2022/03/15 03:24:06;;;;;;;22.90;15.18;;;9.80;72.60;;;;;;5042559;28;20358;-68
2022/03/15 03:26:34;;;;;;;24.02;13.98;;;9.80;72.60;;;;;;5043372;28;20097;-68
2022/03/15 03:29:00;;;;;;;25.08;15.43;;;9.80;72.70;;;;;;5050578;28;20048;-68
2022/03/15 03:31:26;;;;;;;23.42;13.93;;;9.80;72.70;;;;;;5053067;28;20049;-68
2022/03/15 03:33:51;;;;;;;23.08;14.50;;;9.80;72.70;;;;;;5050200;28;20021;-68
2022/03/15 03:36:17;;;;;;;27.50;15.98;;;9.80;72.80;;;;;;5044863;28;20082;-68
2022/03/15 03:38:43;;;;;;;23.92;15.02;;;9.80;72.80;;;;;;5052300;28;20357;-68
2022/03/15 03:41:09;;;;;;;24.98;15.80;;;9.80;72.80;;;;;;5054994;28;20025;-68
2022/03/15 03:43:35;;;;;;;23.88;15.13;;;9.80;72.80;;;;;;5042700;28;20112;-68
2022/03/15 03:46:00;;;;;;;24.75;15.20;;;9.80;72.90;;;;;;5038407;28;20061;-68
2022/03/15 03:48:27;;;;;;;24.33;15.20;;;9.80;72.90;;;;;;5028082;28;20343;-68
2022/03/15 03:50:53;;;;;;;25.20;15.48;;;9.70;72.80;;;;;;5045821;28;20514;-68
2022/03/15 03:53:21;;;;;;;23.75;14.57;;;9.70;72.90;;;;;;5057363;28;20029;-68
2022/03/15 03:55:47;;;;;;;24.25;15.85;;;9.70;72.90;;;;;;5039125;28;20470;-68
2022/03/15 03:58:13;;;;;;;23.85;15.13;;;9.70;73.00;;;;;;5045703;28;20485;-68
2022/03/15 04:00:38;;;;;;;23.02;16.00;;;9.70;73.00;;;;;;5037255;28;20029;-68
2022/03/15 04:03:05;;;;;;;23.88;14.88;;;9.70;73.00;;;;;;5036633;28;20029;-68
2022/03/15 04:05:33;;;;;;;24.65;14.70;;;9.70;73.00;;;;;;5050754;28;20162;-68
2022/03/15 04:07:59;;;;;;;24.55;15.85;;;9.70;73.00;;;;;;5055127;28;20032;-68
2022/03/15 04:10:27;;;;;;;24.88;15.60;;;9.70;73.10;;;;;;5049655;28;20030;-68
2022/03/15 04:12:54;;;;;;;23.10;15.30;;;9.60;73.00;;;;;;5047329;28;20039;-68
2022/03/15 04:15:20;;;;;;;24.50;13.88;;;9.60;73.00;;;;;;5053448;28;20065;-68
2022/03/15 04:17:45;;;;;;;25.80;16.00;;;9.70;73.00;;;;;;5042296;28;20478;-68
2022/03/15 04:20:11;;;;;;;22.83;15.07;;;9.70;73.00;;;;;;5036791;28;20057;-68
2022/03/15 04:22:37;;;;;;;22.27;14.65;;;9.70;73.10;;;;;;5046767;28;20060;-68
2022/03/15 04:25:03;;;;;;;26.13;16.90;;;9.70;73.00;;;;;;5044161;28;20106;-68
2022/03/15 04:27:29;;;;;;;24.60;15.32;;;9.70;73.00;;;;;;5044729;28;20028;-68
2022/03/15 04:29:55;;;;;;;21.95;15.02;;;9.70;73.00;;;;;;5050763;28;20049;-68
2022/03/15 04:32:22;;;;;;;28.70;15.70;;;9.70;73.10;;;;;;5047197;28;20055;-68
2022/03/15 04:34:47;;;;;;;21.75;14.52;;;9.70;73.10;;;;;;5047189;28;20039;-68
2022/03/15 04:37:14;;;;;;;22.83;14.65;;;9.70;73.10;;;;;;5046822;28;20378;-68
2022/03/15 04:39:39;;;;;;;23.55;14.38;;;9.70;73.10;;;;;;5036931;28;20041;-68
2022/03/15 04:42:05;;;;;;;24.48;14.52;;;9.70;73.10;;;;;;5024137;28;20422;-68
2022/03/15 04:44:31;;;;;;;21.25;15.18;;;9.70;73.10;;;;;;5043273;28;20040;-68
2022/03/15 04:46:57;;;;;;;24.60;15.30;;;9.60;73.00;;;;;;5043012;28;20052;-68
2022/03/15 04:49:22;;;;;;;22.23;15.02;;;9.70;73.10;;;;;;5041482;28;20037;-68
2022/03/15 04:51:48;;;;;;;22.10;14.63;;;9.60;73.10;;;;;;5040973;28;20041;-68
2022/03/15 04:54:14;;;;;;;20.27;14.32;;;9.70;73.10;;;;;;5036155;28;20029;-68
2022/03/15 04:56:41;;;;;;;24.13;15.27;;;9.60;73.00;;;;;;5018544;28;20493;-68
2022/03/15 04:59:06;;;;;;;23.90;14.50;;;9.60;73.00;;;;;;5020693;28;20078;-68
2022/03/15 05:01:32;;;;;;;23.65;15.60;;;9.70;73.10;;;;;;5036418;28;20041;-68
2022/03/15 05:03:57;;;;;;;23.38;15.25;;;9.60;73.10;;;;;;5036306;28;20033;-68
2022/03/15 05:06:23;;;;;;;22.63;14.95;;;9.60;73.10;;;;;;5035472;28;20037;-68
2022/03/15 05:08:48;;;;;;;20.38;13.50;;;9.60;73.10;;;;;;5035655;28;20362;-68
2022/03/15 05:11:15;;;;;;;22.00;14.43;;;9.60;73.10;;;;;;5040809;28;20366;-68
2022/03/15 05:13:45;;;;;;;22.80;14.80;;;9.60;73.20;;;;;;5048441;28;20076;-68
2022/03/15 05:16:15;;;;;;;23.02;14.18;;;9.60;73.10;;;;;;5035871;28;20037;-68
2022/03/15 05:18:41;;;;;;;25.58;15.60;;;9.60;73.10;;;;;;5038614;28;20033;-68
2022/03/15 05:21:08;;;;;;;23.40;15.45;;;9.60;73.10;;;;;;5034800;28;20099;-68
2022/03/15 05:23:34;;;;;;;22.30;14.60;;;9.60;73.20;;;;;;5019167;28;20403;-68
2022/03/15 05:26:00;;;;;;;23.17;15.20;;;9.60;73.10;;;;;;5038828;28;20124;-68
2022/03/15 05:28:26;;;;;;;22.90;13.88;;;9.60;73.10;;;;;;5044882;28;20366;-68
2022/03/15 05:30:52;;;;;;;21.80;14.60;;;9.60;73.10;;;;;;5053941;28;20053;-68
2022/03/15 05:33:17;;;;;;;20.63;14.23;;;9.60;73.10;;;;;;5047480;28;20370;-68
2022/03/15 05:35:43;;;;;;;18.95;13.98;;;9.60;73.10;;;;;;5035301;28;20132;-68
2022/03/15 05:38:10;;;;;;;20.88;13.80;;;9.60;73.00;;;;;;5039117;28;20025;-68
2022/03/15 05:40:36;;;;;;;19.85;13.65;;;9.60;73.00;;;;;;5053221;28;20037;-68
2022/03/15 05:43:01;;;;;;;20.35;13.40;;;9.60;73.00;;;;;;5045591;28;20026;-68
2022/03/15 05:45:27;;;;;;;22.30;14.80;;;9.60;73.00;;;;;;5036931;28;20029;-68
2022/03/15 05:47:53;;;;;;;21.13;14.45;;;9.60;73.00;;;;;;5035254;28;20026;-68
2022/03/15 05:50:19;;;;;;;22.15;14.93;;;9.60;73.10;;;;;;5035192;28;20059;-69
2022/03/15 05:52:44;;;;;;;22.25;14.43;;;9.60;73.10;;;;;;5019837;28;20416;-69
2022/03/15 05:55:11;;;;;;;24.02;15.07;;;9.50;73.00;;;;;;5043971;28;20091;-69
2022/03/15 05:57:37;;;;;;;22.83;14.25;;;9.60;73.10;;;;;;5034217;28;20036;-69
2022/03/15 06:00:04;;;;;;;23.25;15.07;;;9.60;73.10;;;;;;5031031;28;20029;-69
2022/03/15 06:02:39;;;;;;;23.92;15.43;;;9.60;73.00;;;;;;5034751;28;20034;-69
2022/03/15 06:05:06;;;;;;;20.95;14.27;;;9.60;73.00;;;;;;5038405;28;20033;-69
2022/03/15 06:07:31;;;;;;;22.90;15.07;;;9.60;72.90;;;;;;5048036;28;20025;-67
2022/03/15 06:09:57;;;;;;;20.85;14.65;;;9.60;72.90;;;;;;5042274;28;20120;-68
2022/03/15 06:12:25;;;;;;;23.25;15.77;;;9.70;72.90;;;;;;5046897;28;20460;-69
2022/03/15 06:14:51;;;;;;;22.85;14.55;;;9.60;72.90;;;;;;5032367;28;20339;-69
2022/03/15 06:17:17;;;;;;;24.20;14.75;;;9.70;73.00;;;;;;5035891;28;20030;-69
2022/03/15 06:19:43;;;;;;;21.90;15.63;;;9.60;72.90;;;;;;5045177;28;20025;-69
2022/03/15 06:22:09;;;;;;;20.88;14.40;;;9.60;72.90;;;;;;5055821;28;20025;-69
2022/03/15 06:24:34;;;;;;;24.10;15.77;;;9.60;72.90;;;;;;5048332;28;20033;-69
2022/03/15 06:27:01;;;;;;;22.67;15.07;;;9.60;72.80;;;;;;5036336;28;20176;-69
2022/03/15 06:29:27;;;;;;;21.67;16.23;;;9.70;72.70;;;;;;5026164;28;20055;-69
2022/03/15 06:31:53;;;;;;;23.13;15.75;;;9.70;72.60;;;;;;5036246;28;20458;-69
2022/03/15 06:34:20;;;;;;;21.17;15.63;;;9.70;72.60;;;;;;5036203;28;20021;-68
2022/03/15 06:36:46;;;;;;;23.48;15.43;;;9.70;72.60;;;;;;5034928;28;20030;-69
2022/03/15 06:39:12;;;;;;;22.38;15.68;;;9.80;72.60;;;;;;5049051;28;20091;-69
2022/03/15 06:41:39;;;;;;;23.27;16.15;;;9.80;72.50;;;;;;5042061;28;20039;-69
2022/03/15 06:44:08;;;;;;;25.55;16.23;;;9.70;72.40;;;;;;5052019;28;20030;-69
2022/03/15 06:46:34;;;;;;;24.75;15.82;;;9.80;72.50;;;;;;5048506;28;20087;-69
2022/03/15 06:49:00;;;;;;;23.40;16.75;;;9.80;72.40;;;;;;5034978;28;20488;-69
2022/03/15 06:51:26;;;;;;;25.02;15.85;;;9.80;72.30;;;;;;5033844;28;20116;-69
2022/03/15 06:53:57;;;;;;;24.10;15.75;;;9.80;72.30;;;;;;5042074;28;20063;-67
2022/03/15 06:56:23;;;;;;;21.02;14.43;;;9.80;72.30;;;;;;5038385;28;20447;-68
2022/03/15 06:58:50;;;;;;;18.83;13.68;;;9.80;72.20;;;;;;5018298;28;20375;-67
2022/03/15 07:01:16;;;;;;;22.90;14.68;;;9.90;72.10;;;;;;5038434;28;20048;-69
2022/03/15 07:03:41;;;;;;;20.15;13.77;;;9.90;71.90;;;;;;5025611;28;20029;-69
2022/03/15 07:06:07;;;;;;;19.30;13.77;;;10.00;71.80;;;;;;5034379;28;20025;-69
2022/03/15 07:08:33;;;;;;;21.88;14.43;;;10.00;71.70;;;;;;5051087;28;20365;-69
2022/03/15 07:10:58;;;;;;;20.73;13.63;;;10.00;71.60;;;;;;5041634;28;20033;-69
2022/03/15 07:13:24;;;;;;;22.60;14.13;;;10.00;71.50;;;;;;5022947;28;20045;-70
2022/03/15 07:15:49;;;;;;;19.80;13.82;;;10.00;71.40;;;;;;5044190;28;20028;-71
2022/03/15 07:18:20;;;;;;;19.95;13.02;;;10.10;71.40;;;;;;5052354;28;20446;-70
2022/03/15 07:20:46;;;;;;;18.97;12.87;;;10.10;71.40;;;;;;5045324;28;20034;-70
2022/03/15 07:23:13;;;;;;;21.27;13.50;;;10.10;71.40;;;;;;5038085;28;20029;-71
2022/03/15 07:25:38;;;;;;;22.23;12.88;;;10.10;71.30;;;;;;5047961;28;20029;-70
2022/03/15 07:28:04;;;;;;;21.55;13.35;;;10.10;71.20;;;;;;5054750;28;20480;-70
2022/03/15 07:30:30;;;;;;;20.63;13.02;;;10.20;71.10;;;;;;5039319;28;20257;-71
2022/03/15 07:32:55;;;;;;;21.98;12.82;;;10.10;71.00;;;;;;5050003;28;20100;-71
2022/03/15 07:35:22;;;;;;;17.05;11.90;;;10.20;70.90;;;;;;5022342;28;20029;-71
2022/03/15 07:37:50;;;;;;;25.15;11.75;;;10.20;70.80;;;;;;5045808;28;20024;-71
2022/03/15 07:40:15;;;;;;;21.95;12.18;;;10.20;70.60;;;;;;5046708;28;20030;-70
2022/03/15 07:42:41;;;;;;;19.48;12.07;;;10.20;70.50;;;;;;5044666;28;20086;-70
2022/03/15 07:45:08;;;;;;;20.23;12.60;;;10.20;70.50;;;;;;5052235;28;20029;-70
2022/03/15 07:47:33;;;;;;;34.22;11.35;;;10.20;70.40;;;;;;5047869;28;20025;-70
2022/03/15 07:49:59;;;;;;;18.02;11.50;;;10.20;70.30;;;;;;5039008;28;20036;-69
2022/03/15 07:52:24;;;;;;;18.13;12.40;;;10.30;70.20;;;;;;5045872;28;20033;-69
2022/03/15 07:54:50;;;;;;;17.83;11.57;;;10.30;70.20;;;;;;5037839;28;20094;-70
2022/03/15 07:57:16;;;;;;;17.85;11.45;;;10.30;70.20;;;;;;5038774;28;20048;-70
2022/03/15 07:59:42;;;;;;;18.02;11.57;;;10.30;70.10;;;;;;5036911;28;20030;-69
2022/03/15 08:02:08;;;;;;;13.95;9.60;;;10.30;70.00;;;;;;5036640;28;20036;-71
2022/03/15 08:04:34;;;;;;;20.05;11.70;;;10.40;69.90;;;;;;5053731;28;20461;-69
2022/03/15 08:06:59;;;;;;;17.10;10.55;;;10.40;69.90;;;;;;5040339;28;20078;-70
2022/03/15 08:09:25;;;;;;;15.40;9.85;;;10.40;69.80;;;;;;5039451;28;20017;-69
2022/03/15 08:11:50;;;;;;;15.90;9.52;;;10.40;69.70;;;;;;5036081;28;20477;-69
2022/03/15 08:14:16;;;;;;;16.17;9.82;;;10.40;69.60;;;;;;5036063;28;20030;-70
2022/03/15 08:16:42;;;;;;;17.15;10.20;;;10.40;69.50;;;;;;5042041;28;20056;-69
2022/03/15 08:19:08;;;;;;;16.17;10.13;;;10.50;69.40;;;;;;5038874;28;20083;-68
2022/03/15 08:21:36;;;;;;;19.23;11.48;;;10.50;69.40;;;;;;5035337;28;20041;-69
2022/03/15 08:24:02;;;;;;;16.27;9.38;;;10.50;69.30;;;;;;5023213;28;20029;-69
2022/03/15 08:26:27;;;;;;;17.52;10.43;;;10.50;69.20;;;;;;5050084;28;20029;-69
2022/03/15 08:28:53;;;;;;;13.95;9.95;;;10.50;69.10;;;;;;5035003;28;20115;-69
2022/03/15 08:31:18;;;;;;;14.85;9.65;;;10.60;69.00;;;;;;5026321;28;20045;-69
2022/03/15 08:33:44;;;;;;;14.57;9.43;;;10.60;68.90;;;;;;5035964;28;20063;-69
2022/03/15 08:36:11;;;;;;;14.38;9.50;;;10.60;68.80;;;;;;5035177;28;20029;-69
2022/03/15 08:38:36;;;;;;;14.90;9.00;;;10.60;68.60;;;;;;5035106;28;20029;-69
2022/03/15 08:41:02;;;;;;;16.20;9.70;;;10.60;68.60;;;;;;5033860;28;20104;-69
2022/03/15 08:43:29;;;;;;;15.20;9.30;;;10.60;68.50;;;;;;5034857;28;20065;-69
2022/03/15 08:45:55;;;;;;;13.27;8.93;;;10.70;68.50;;;;;;5034135;28;20018;-69
2022/03/15 08:48:21;;;;;;;15.93;9.75;;;10.70;68.50;;;;;;5040973;28;20170;-69
2022/03/15 08:50:46;;;;;;;14.80;9.27;;;10.70;68.30;;;;;;5036199;28;20030;-69
2022/03/15 08:53:13;;;;;;;14.68;9.07;;;10.80;68.30;;;;;;5038330;28;20038;-69
2022/03/15 08:55:42;;;;;;;15.98;9.23;;;10.80;68.10;;;;;;5036124;28;20071;-69
2022/03/15 08:58:07;;;;;;;14.98;8.98;;;10.80;68.00;;;;;;5048379;28;20357;-70
2022/03/15 09:00:33;;;;;;;14.70;10.05;;;10.90;68.00;;;;;;5036608;28;20029;-70
2022/03/15 09:02:58;;;;;;;16.95;9.90;;;10.90;67.90;;;;;;5047777;28;20057;-70
2022/03/15 09:05:26;;;;;;;15.38;9.23;;;10.90;67.90;;;;;;5035838;28;20099;-70
2022/03/15 09:07:53;;;;;;;12.73;8.77;;;10.90;67.80;;;;;;5048571;28;20049;-70
2022/03/15 09:10:23;;;;;;;12.35;8.20;;;11.00;67.80;;;;;;5045859;28;20036;-69
2022/03/15 09:12:52;;;;;;;14.00;8.17;;;11.00;67.60;;;;;;5051964;28;20037;-69
2022/03/15 09:15:19;;;;;;;13.93;8.05;;;11.10;67.60;;;;;;5039307;28;20310;-69
2022/03/15 09:17:44;;;;;;;14.20;8.20;;;11.10;67.50;;;;;;5044290;28;20067;-70
2022/03/15 09:20:10;;;;;;;13.25;8.52;;;11.10;67.40;;;;;;5050543;28;20029;-71
2022/03/15 09:22:36;;;;;;;13.75;8.55;;;11.10;67.30;;;;;;5017745;28;20037;-68
2022/03/15 09:25:03;;;;;;;13.52;8.13;;;11.20;67.30;;;;;;5052647;28;20029;-69
2022/03/15 09:27:29;;;;;;;15.93;8.55;;;11.20;67.20;;;;;;5036696;28;20350;-70
2022/03/15 09:29:56;;;;;;;13.77;8.18;;;11.20;67.10;;;;;;5035255;28;20050;-69
2022/03/15 09:32:22;;;;;;;15.38;8.55;;;11.30;67.10;;;;;;5054137;28;20428;-70
2022/03/15 09:34:47;;;;;;;14.57;9.05;;;11.30;66.90;;;;;;5051668;28;20138;-69
2022/03/15 09:37:14;;;;;;;16.08;9.13;;;11.30;66.80;;;;;;5042802;28;20033;-70
2022/03/15 09:39:40;;;;;;;12.60;8.00;;;11.30;66.80;;;;;;5046546;28;20037;-69
2022/03/15 09:42:08;;;;;;;16.23;9.05;;;11.40;66.70;;;;;;5022143;28;20342;-69
2022/03/15 09:44:36;;;;;;;12.18;8.23;;;11.40;66.60;;;;;;5035893;28;20488;-70
2022/03/15 09:47:05;;;;;;;15.00;8.52;;;11.40;66.50;;;;;;5018393;28;20045;-68
2022/03/15 09:49:31;;;;;;;14.93;8.52;;;11.50;66.50;;;;;;5034796;28;20377;-70
2022/03/15 09:51:57;;;;;;;13.52;7.88;;;11.50;66.40;;;;;;5048104;28;20100;-70
2022/03/15 09:54:27;;;;;;;14.95;8.15;;;11.60;66.40;;;;;;5040058;28;20052;-69
2022/03/15 09:56:54;;;;;;;13.30;7.57;;;11.60;66.30;;;;;;5052321;28;20040;-69
2022/03/15 09:59:22;;;;;;;17.05;8.32;;;11.60;66.00;;;;;;5029907;28;20037;-69
2022/03/15 10:01:50;;;;;;;16.20;7.90;;;11.60;65.80;;;;;;5037026;28;20061;-69
2022/03/15 10:04:17;;;;;;;12.80;7.15;;;11.70;65.80;;;;;;5017805;28;20045;-69
2022/03/15 10:06:45;;;;;;;15.90;8.45;;;11.70;65.90;;;;;;5034965;28;20342;-69
2022/03/15 10:09:13;;;;;;;12.60;8.02;;;11.70;65.80;;;;;;5051418;28;20040;-69
2022/03/15 10:11:38;;;;;;;13.43;8.10;;;11.70;65.70;;;;;;5018680;28;20064;-70
2022/03/15 10:14:05;;;;;;;12.60;7.57;;;11.70;65.70;;;;;;5034582;28;20065;-70
2022/03/15 10:16:36;;;;;;;14.55;7.53;;;11.80;65.70;;;;;;5037111;28;20385;-70
2022/03/15 10:19:02;;;;;;;17.55;8.15;;;11.80;65.60;;;;;;5019432;28;20077;-70
2022/03/15 10:21:51;;;;;;;12.98;7.95;;;11.80;65.50;;;;;;5034273;28;20120;-71
2022/03/15 10:24:23;;;;;;;13.00;8.48;;;11.90;65.50;;;;;;5049846;28;20063;-70
2022/03/15 10:26:55;;;;;;;13.20;7.78;;;11.90;65.40;;;;;;5040941;28;20025;-70
2022/03/15 10:29:25;;;;;;;13.23;7.60;;;11.90;65.40;;;;;;5033800;28;20029;-69
2022/03/15 10:31:53;;;;;;;14.00;7.70;;;11.90;65.30;;;;;;5045040;28;20043;-69
2022/03/15 10:34:21;;;;;;;15.57;7.90;;;11.90;65.30;;;;;;5053796;28;20123;-69
2022/03/15 10:36:49;;;;;;;13.82;8.30;;;11.90;65.20;;;;;;5041763;28;20381;-69
2022/03/15 10:39:17;;;;;;;12.73;7.70;;;12.00;65.10;;;;;;5040086;28;20047;-70
2022/03/15 10:41:51;;;;;;;15.18;7.93;;;12.00;65.10;;;;;;5033501;28;20048;-68
2022/03/15 10:44:24;;;;;;;12.95;8.20;;;12.00;65.10;;;;;;5039440;28;20084;-70
2022/03/15 10:47:13;;;;;;;11.52;7.78;;;12.10;65.10;;;;;;5040163;28;20074;-70
2022/03/15 10:49:48;;;;;;;14.63;8.05;;;12.10;65.00;;;;;;5047927;28;20071;-70
2022/03/15 10:52:28;;;;;;;12.30;7.85;;;12.10;64.90;;;;;;5044104;28;20361;-70
2022/03/15 10:54:53;;;;;;;14.02;8.35;;;12.10;64.90;;;;;;5056253;28;20036;-70
2022/03/15 10:57:19;;;;;;;12.32;7.00;;;12.10;64.90;;;;;;5048532;28;20025;-70
2022/03/15 10:59:45;;;;;;;12.60;6.78;;;12.20;64.90;;;;;;5047810;28;20064;-70
2022/03/15 11:02:12;;;;;;;12.45;7.43;;;12.20;64.90;;;;;;5038450;28;20482;-69
2022/03/15 11:04:48;;;;;;;13.02;7.57;;;12.30;64.90;;;;;;5037098;28;20053;-70
2022/03/15 11:07:14;;;;;;;15.18;8.13;;;12.30;64.80;;;;;;5046362;28;20063;-70
2022/03/15 11:09:46;;;;;;;12.20;6.57;;;12.30;64.80;;;;;;5036165;28;20335;-69
2022/03/15 11:12:12;;;;;;;12.68;7.15;;;12.30;64.90;;;;;;5049087;28;20048;-70
2022/03/15 11:14:51;;;;;;;14.35;7.55;;;12.40;64.90;;;;;;5037794;28;20366;-69
2022/03/15 11:17:20;;;;;;;14.55;8.32;;;12.40;65.00;;;;;;5046068;28;20390;-69
2022/03/15 11:19:47;;;;;;;13.15;8.32;;;12.40;65.00;;;;;;5052944;28;20046;-70
2022/03/15 11:22:15;;;;;;;11.95;6.93;;;12.40;65.00;;;;;;5045561;28;20115;-69
2022/03/15 11:25:08;;;;;;;11.75;6.57;;;12.50;64.90;;;;;;5039451;28;20017;-69
2022/03/15 11:27:36;;;;;;;11.85;6.53;;;12.50;64.80;;;;;;5037136;28;20060;-68
2022/03/15 11:30:05;;;;;;;13.48;7.15;;;12.50;64.70;;;;;;5037665;28;20141;-69
2022/03/15 11:32:33;;;;;;;11.90;6.68;;;12.50;64.60;;;;;;5039221;28;20061;-68
2022/03/15 11:34:59;;;;;;;12.23;6.82;;;12.50;64.40;;;;;;5047880;28;20064;-67
2022/03/15 11:37:25;;;;;;;14.80;7.30;;;12.60;64.30;;;;;;5047347;28;20036;-67
2022/03/15 11:39:53;;;;;;;10.98;7.28;;;12.60;64.30;;;;;;5067164;28;20043;-67
2022/03/15 11:42:19;;;;;;;12.82;7.80;;;12.60;64.20;;;;;;5046076;28;20393;-67
2022/03/15 11:44:57;;;;;;;13.40;8.25;;;12.60;64.20;;;;;;5043447;28;20021;-67
2022/03/15 11:47:37;;;;;;;15.63;8.50;;;12.70;64.30;;;;;;5041321;28;20017;-67
2022/03/15 11:50:25;;;;;;;13.90;7.88;;;12.70;64.30;;;;;;5023871;28;20030;-67
2022/03/15 11:53:09;;;;;;;14.75;7.57;;;12.70;64.10;;;;;;5041291;28;20033;-66
2022/03/15 11:55:45;;;;;;;13.25;6.93;;;12.70;63.90;;;;;;5050172;28;20041;-70
2022/03/15 11:58:21;;;;;;;15.15;7.82;;;12.70;63.70;;;;;;5049062;28;20040;-69
2022/03/15 12:00:47;;;;;;;13.80;7.40;;;12.70;63.70;;;;;;5020983;28;20115;-67
2022/03/15 12:03:19;;;;;;;11.63;6.60;;;12.70;63.50;;;;;;5045297;28;20101;-69
2022/03/15 12:05:57;;;;;;;14.02;7.18;;;12.80;63.30;;;;;;5047858;28;20462;-69
2022/03/15 12:08:24;;;;;;;13.35;6.28;;;12.80;63.10;;;;;;5063272;28;20377;-70
2022/03/15 12:10:50;;;;;;;15.02;6.30;;;12.70;63.00;;;;;;5044611;28;20396;-67
2022/03/15 12:13:16;;;;;;;12.57;6.00;;;12.80;62.70;;;;;;5042689;28;20074;-68
2022/03/15 12:15:48;;;;;;;10.85;5.65;;;12.80;62.50;;;;;;5035975;28;20044;-67
2022/03/15 12:21:02;;;;;;;10.63;5.28;;;12.80;62.10;;;;;;5044832;28;20040;-66
2022/03/15 12:23:38;;;;;;;12.50;5.25;;;12.80;61.80;;;;;;5054698;28;20052;-68
2022/03/15 12:26:04;;;;;;;13.10;5.47;;;12.80;61.80;;;;;;5037621;28;20033;-69
2022/03/15 12:28:32;;;;;;;10.00;5.60;;;12.80;61.70;;;;;;5057002;28;20069;-69
2022/03/15 12:31:05;;;;;;;11.80;5.65;;;12.80;61.50;;;;;;5035349;28;20187;-69
2022/03/15 12:33:31;;;;;;;11.43;5.70;;;12.90;61.40;;;;;;5035637;28;20041;-69
2022/03/15 12:36:05;;;;;;;11.75;5.20;;;12.90;61.40;;;;;;5037090;28;20470;-69
2022/03/15 12:38:40;;;;;;;9.65;5.32;;;12.80;61.30;;;;;;5035809;28;20045;-69